createdAt,value
2018-12-26T09:30:03.296Z,61.70
2018-12-26T09:33:03.125Z,61.80
2018-12-26T09:35:55.603Z,61.90
2018-12-26T09:39:04.354Z,62.10
2018-12-26T09:41:55.549Z,62.50
2018-12-26T10:20:17.070Z,63.90
2018-12-26T10:23:04.628Z,63.60
2018-12-26T10:28:46.734Z,64.10
2018-12-26T10:40:14.484Z,64.40
2018-12-26T10:46:31.518Z,64.40
2018-12-26T10:52:34.462Z,64.70
2018-12-26T10:55:10.407Z,64.70
2018-12-26T10:58:43.734Z,64.80
2018-12-26T11:09:19.490Z,64.80
2018-12-26T11:25:13.401Z,65.40
2018-12-26T11:43:54.611Z,65.40
2018-12-26T11:46:50.501Z,66.00
2018-12-26T12:05:45.003Z,66.30
2018-12-26T13:01:16.973Z,67.00
2018-12-26T13:59:41.416Z,68.70
2018-12-26T14:02:32.358Z,68.70
2018-12-26T14:05:13.534Z,68.70
2018-12-26T14:08:09.662Z,68.90
2018-12-26T14:10:46.186Z,69.00
2018-12-26T14:16:57.436Z,69.00
2018-12-26T14:19:34.850Z,69.10
2018-12-26T14:22:07.993Z,69.20
2018-12-26T14:24:40.446Z,69.20
2018-12-26T14:27:12.977Z,69.20
2018-12-26T14:29:50.850Z,69.30
2018-12-26T14:32:26.746Z,69.30
2018-12-26T14:35:11.070Z,69.40
2018-12-26T14:37:47.480Z,69.40
2018-12-26T14:40:20.466Z,69.70
2018-12-26T14:42:56.300Z,69.80
2018-12-26T14:45:34.940Z,70.20
2018-12-26T14:48:09.862Z,69.80
2018-12-26T14:50:42.810Z,70.00
2018-12-26T14:53:22.226Z,70.00
2018-12-26T14:56:04.008Z,70.10
2018-12-26T14:58:38.172Z,70.20
2018-12-26T15:01:10.931Z,70.20
2018-12-26T15:03:39.996Z,70.20
2018-12-26T15:06:09.392Z,70.90
2018-12-26T15:08:40.176Z,70.20
2018-12-26T15:11:10.538Z,70.30
2018-12-26T15:13:40.535Z,70.30
2018-12-26T15:16:11.228Z,70.40
2018-12-26T15:18:41.126Z,70.50
2018-12-26T15:21:11.127Z,70.50
2018-12-26T15:23:41.102Z,70.70
2018-12-26T15:26:18.528Z,71.30
2018-12-26T15:28:56.458Z,70.70
2018-12-26T15:31:32.736Z,70.60
2018-12-26T15:34:04.508Z,70.50
2018-12-26T15:36:34.306Z,70.60
2018-12-26T15:39:04.430Z,70.70
2018-12-26T15:41:35.360Z,70.80
2018-12-26T15:44:04.948Z,70.80
2018-12-26T15:46:34.345Z,70.90
2018-12-26T15:49:04.250Z,70.90
2018-12-26T15:51:33.818Z,70.90
2018-12-26T15:54:03.207Z,70.90
2018-12-26T15:56:32.541Z,71.00
2018-12-26T15:59:03.947Z,71.10
2018-12-26T16:01:33.706Z,71.20
2018-12-26T16:04:03.412Z,71.10
2018-12-26T16:06:34.193Z,71.20
2018-12-26T16:09:03.920Z,71.10
2018-12-26T16:11:33.592Z,71.20
2018-12-26T16:14:03.991Z,71.20
2018-12-26T16:16:33.809Z,71.30
2018-12-26T16:19:05.118Z,71.40
2018-12-26T16:21:35.023Z,71.40
2018-12-26T16:24:05.094Z,71.60
2018-12-26T16:26:34.879Z,71.60
2018-12-26T16:29:04.520Z,71.70
2018-12-26T16:31:34.374Z,71.80
2018-12-26T16:34:03.991Z,71.80
2018-12-26T16:36:33.506Z,71.80
2018-12-26T16:39:03.352Z,71.70
2018-12-26T16:41:33.770Z,71.80
2018-12-26T16:44:03.883Z,71.90
2018-12-26T16:46:37.920Z,72.10
2018-12-26T16:49:11.828Z,72.00
2018-12-26T16:52:34.182Z,72.10
2018-12-26T16:55:34.435Z,72.10
2018-12-26T17:05:37.201Z,72.30
2018-12-26T17:12:12.718Z,72.50
2018-12-26T17:18:51.422Z,72.50
2018-12-26T17:22:27.342Z,72.60
2018-12-26T17:26:00.384Z,72.80
2018-12-26T17:31:58.053Z,72.70
2018-12-26T17:34:59.899Z,72.80
2018-12-26T17:37:41.918Z,72.90
2018-12-26T17:40:17.460Z,73.20
2018-12-26T17:42:57.944Z,73.00
2018-12-26T17:45:32.872Z,73.10
2018-12-26T17:48:14.196Z,74.30
2018-12-26T17:51:07.427Z,73.40
2018-12-26T17:54:29.514Z,73.50
2018-12-26T17:57:48.417Z,73.50
2018-12-26T18:08:17.493Z,74.00
2018-12-26T18:11:02.436Z,74.00
2018-12-26T18:13:50.494Z,74.10
2018-12-26T18:16:54.231Z,74.20
2018-12-26T18:19:43.725Z,74.10
2018-12-26T18:22:58.405Z,74.10
2018-12-26T18:25:54.935Z,73.90
2018-12-26T18:29:54.706Z,73.90
2018-12-26T18:31:37.869Z,73.90
2018-12-26T18:37:49.911Z,73.80
2018-12-26T18:40:32.716Z,73.80
2018-12-26T18:43:12.469Z,73.90
2018-12-26T18:46:05.311Z,74.00
2018-12-26T18:51:48.050Z,74.00
2018-12-26T18:54:34.689Z,74.00
2018-12-26T18:57:11.384Z,74.30
2018-12-26T18:59:54.656Z,73.90
2018-12-26T19:02:42.800Z,73.90
2018-12-26T19:05:30.132Z,73.90
2018-12-26T19:08:13.809Z,73.90
2018-12-26T19:10:51.477Z,73.90
2018-12-26T19:13:54.064Z,73.80
2018-12-26T19:16:41.809Z,73.90
2018-12-26T19:19:33.591Z,74.00
2018-12-26T19:22:14.923Z,74.10
2018-12-26T19:25:04.545Z,74.10
2018-12-26T19:27:54.884Z,74.00
2018-12-26T19:30:36.386Z,74.10
2018-12-26T19:33:25.600Z,74.20
2018-12-26T19:36:33.098Z,74.30
2018-12-26T19:39:46.028Z,74.20
2018-12-26T19:42:37.351Z,74.20
2018-12-26T19:45:23.067Z,74.20
2018-12-26T19:48:04.875Z,74.30
2018-12-26T19:51:22.068Z,74.20
2018-12-26T19:54:24.599Z,74.30
2018-12-26T19:57:13.638Z,74.30
2018-12-26T20:00:04.900Z,74.40
2018-12-26T20:02:37.664Z,74.40
2018-12-26T20:05:11.056Z,74.50
2018-12-26T20:07:41.613Z,74.50
2018-12-26T20:10:24.691Z,74.60
2018-12-26T20:13:10.104Z,74.60
2018-12-26T20:15:46.059Z,74.60
2018-12-26T20:18:19.484Z,74.40
2018-12-26T20:20:52.750Z,74.40
2018-12-26T20:23:32.823Z,74.40
2018-12-26T20:26:17.947Z,74.60
2018-12-26T20:29:17.525Z,74.40
2018-12-26T20:31:56.945Z,74.40
2018-12-26T20:34:55.561Z,74.60
2018-12-26T20:38:05.339Z,74.50
2018-12-26T20:44:23.591Z,74.50
2018-12-26T20:47:33.901Z,74.70
2018-12-26T20:51:17.233Z,74.50
2018-12-26T20:53:51.361Z,74.60
2018-12-26T20:56:26.409Z,74.70
2018-12-26T20:59:08.160Z,74.60
2018-12-26T21:02:05.798Z,74.60
2018-12-26T21:05:16.179Z,74.60
2018-12-26T21:07:53.037Z,74.50
2018-12-26T21:10:31.816Z,74.60
2018-12-26T21:13:43.872Z,74.70
2018-12-26T21:20:34.561Z,74.50
2018-12-26T21:24:03.929Z,74.40
2018-12-26T21:27:17.578Z,74.30
2018-12-26T21:29:48.634Z,74.40
2018-12-26T21:33:02.165Z,74.30
2018-12-26T21:36:57.713Z,74.30
2018-12-26T21:38:53.687Z,74.40
2018-12-26T21:42:16.387Z,74.20
2018-12-26T21:45:12.526Z,74.40
2018-12-26T21:48:29.547Z,74.10
2018-12-26T21:51:24.860Z,74.10
2018-12-26T21:54:22.434Z,74.00
2018-12-26T21:56:53.609Z,73.80
2018-12-26T21:59:23.551Z,74.00
2018-12-26T22:02:22.471Z,74.00
2018-12-26T22:08:56.787Z,74.00
2018-12-26T22:11:36.211Z,74.00
2018-12-26T22:14:33.409Z,74.30
2018-12-26T22:17:39.501Z,74.20
2018-12-26T22:20:34.731Z,74.20
2018-12-26T22:23:42.284Z,74.20
2018-12-26T22:26:27.714Z,74.20
2018-12-26T22:29:16.871Z,74.20
2018-12-26T22:35:20.332Z,74.30
2018-12-26T22:38:01.295Z,74.20
2018-12-26T22:44:02.963Z,74.30
2018-12-26T22:46:49.945Z,74.40
2018-12-26T22:49:41.493Z,74.60
2018-12-26T22:53:01.191Z,74.40
2018-12-26T22:55:44.887Z,74.60
2018-12-26T22:58:25.117Z,74.50
2018-12-26T23:01:19.830Z,74.60
2018-12-26T23:04:34.473Z,74.60
2018-12-26T23:07:18.502Z,74.70
2018-12-26T23:10:03.165Z,74.70
2018-12-26T23:12:59.166Z,75.00
2018-12-26T23:15:41.500Z,74.90
2018-12-26T23:18:19.209Z,75.00
2018-12-26T23:21:37.559Z,75.10
2018-12-26T23:34:05.620Z,75.00
2018-12-26T23:37:20.962Z,75.30
2018-12-26T23:40:53.509Z,75.40
2018-12-26T23:43:57.045Z,75.20
2018-12-26T23:50:04.047Z,75.70
2018-12-26T23:52:50.473Z,75.30
2018-12-26T23:55:54.886Z,75.60
